createdAt,value
2022-10-10T00:01:20.737Z,23.70
2022-10-10T00:03:49.110Z,23.70
2022-10-10T00:06:17.476Z,23.80
2022-10-10T00:08:47.594Z,23.90
2022-10-10T00:11:21.052Z,23.90
2022-10-10T00:13:52.691Z,24.00
2022-10-10T00:16:21.226Z,23.90
2022-10-10T00:18:49.456Z,23.80
2022-10-10T00:21:17.562Z,23.40
2022-10-10T00:23:46.825Z,23.50
2022-10-10T00:26:18.960Z,23.50
2022-10-10T00:28:47.381Z,23.10
2022-10-10T00:31:16.341Z,23.10
2022-10-10T00:33:44.323Z,23.10
2022-10-10T00:36:12.838Z,23.00
2022-10-10T00:38:40.756Z,22.50
2022-10-10T00:41:10.447Z,22.70
2022-10-10T00:43:38.981Z,22.80
2022-10-10T00:46:07.097Z,22.30
2022-10-10T00:48:38.123Z,22.20
2022-10-10T00:51:09.739Z,21.90
2022-10-10T00:53:40.435Z,22.10
2022-10-10T00:56:11.365Z,22.30
2022-10-10T00:58:43.995Z,22.30
2022-10-10T01:01:12.195Z,22.10
2022-10-10T01:03:40.119Z,22.30
2022-10-10T01:06:08.373Z,22.00
2022-10-10T01:08:37.358Z,21.90
2022-10-10T01:11:28.339Z,21.90
2022-10-10T01:14:05.181Z,21.90
2022-10-10T01:16:43.299Z,21.70
2022-10-10T01:19:32.164Z,21.50
2022-10-10T01:22:13.859Z,21.60
2022-10-10T01:24:58.474Z,21.60
2022-10-10T01:27:32.014Z,21.50
2022-10-10T01:30:06.290Z,21.50
2022-10-10T01:32:39.667Z,21.40
2022-10-10T01:35:35.211Z,21.50
2022-10-10T01:38:20.975Z,21.80
2022-10-10T01:40:52.561Z,21.50
2022-10-10T01:43:21.100Z,21.40
2022-10-10T01:45:52.225Z,20.90
2022-10-10T01:48:23.437Z,21.30
2022-10-10T01:51:21.274Z,21.40
2022-10-10T01:54:00.599Z,21.60
2022-10-10T01:56:35.071Z,21.60
2022-10-10T01:59:15.443Z,21.30
2022-10-10T02:01:50.312Z,21.00
2022-10-10T02:04:27.638Z,21.10
2022-10-10T02:07:00.828Z,21.30
2022-10-10T02:09:34.857Z,21.10
2022-10-10T02:12:03.870Z,21.20
2022-10-10T02:14:36.569Z,21.20
2022-10-10T02:17:08.872Z,21.10
2022-10-10T02:19:38.659Z,21.20
2022-10-10T02:22:07.739Z,21.00
2022-10-10T02:24:35.835Z,21.20
2022-10-10T02:27:09.112Z,21.40
2022-10-10T02:29:41.829Z,21.10
2022-10-10T02:32:15.014Z,21.00
2022-10-10T02:34:47.453Z,21.00
2022-10-10T02:37:17.043Z,20.80
2022-10-10T02:39:50.089Z,20.70
2022-10-10T02:42:20.095Z,20.70
2022-10-10T02:44:48.765Z,20.90
2022-10-10T02:47:18.191Z,21.10
2022-10-10T02:49:46.812Z,21.00
2022-10-10T02:52:17.356Z,21.20
2022-10-10T02:54:45.385Z,21.30
2022-10-10T02:57:13.471Z,21.10
2022-10-10T02:59:41.644Z,21.10
2022-10-10T03:02:09.680Z,20.80
2022-10-10T03:04:39.189Z,20.70
2022-10-10T03:07:07.095Z,20.60
2022-10-10T03:09:35.259Z,20.40
2022-10-10T03:12:03.247Z,20.70
2022-10-10T03:14:31.176Z,20.00
2022-10-10T03:16:59.160Z,19.80
2022-10-10T03:19:27.459Z,20.10
2022-10-10T03:21:56.735Z,20.30
2022-10-10T03:24:24.918Z,20.60
2022-10-10T03:26:52.813Z,20.40
2022-10-10T03:29:20.741Z,20.00
2022-10-10T03:31:48.646Z,20.20
2022-10-10T03:34:16.726Z,20.00
2022-10-10T03:36:44.661Z,20.30
2022-10-10T03:39:13.922Z,20.20
2022-10-10T03:41:41.833Z,20.20
2022-10-10T03:44:09.728Z,20.20
2022-10-10T03:46:37.720Z,20.40
2022-10-10T03:49:05.654Z,20.60
2022-10-10T03:51:33.556Z,20.50
2022-10-10T03:54:01.568Z,20.40
2022-10-10T03:56:33.255Z,20.10
2022-10-10T03:59:03.704Z,20.10
2022-10-10T04:01:31.946Z,20.20
2022-10-10T04:04:00.007Z,20.20
2022-10-10T04:06:28.363Z,20.20
2022-10-10T04:08:56.331Z,20.10
2022-10-10T04:11:24.260Z,20.30
2022-10-10T04:13:53.510Z,20.10
2022-10-10T04:16:21.435Z,20.30
2022-10-10T04:18:49.330Z,20.30
2022-10-10T04:21:17.290Z,20.30
2022-10-10T04:23:45.216Z,20.30
2022-10-10T04:26:13.153Z,20.40
2022-10-10T04:28:41.126Z,20.50
2022-10-10T04:31:10.472Z,20.70
2022-10-10T04:33:38.519Z,20.70
2022-10-10T04:36:06.702Z,20.60
2022-10-10T04:38:34.989Z,20.70
2022-10-10T04:41:03.384Z,20.70
2022-10-10T04:43:31.291Z,20.70
2022-10-10T04:45:59.625Z,20.80
2022-10-10T04:48:28.952Z,20.90
2022-10-10T04:50:58.243Z,20.90
2022-10-10T04:53:27.368Z,20.90
2022-10-10T04:55:55.613Z,21.00
2022-10-10T04:58:24.273Z,20.90
2022-10-10T05:00:53.776Z,20.90
2022-10-10T05:03:24.557Z,20.90
2022-10-10T05:05:54.339Z,20.90
2022-10-10T05:08:22.397Z,20.90
2022-10-10T05:10:53.517Z,21.00
2022-10-10T05:13:21.442Z,20.80
2022-10-10T05:15:52.526Z,20.70
2022-10-10T05:18:21.057Z,20.80
2022-10-10T05:20:49.595Z,20.60
2022-10-10T05:23:21.794Z,20.60
2022-10-10T05:25:52.040Z,20.50
2022-10-10T05:28:20.090Z,20.70
2022-10-10T05:30:48.154Z,20.80
2022-10-10T05:33:16.080Z,20.90
2022-10-10T05:35:44.016Z,20.40
2022-10-10T05:38:12.001Z,20.90
2022-10-10T05:40:42.497Z,21.10
2022-10-10T05:43:10.606Z,21.30
2022-10-10T05:45:38.546Z,21.20
2022-10-10T05:48:06.499Z,21.50
2022-10-10T05:50:38.461Z,21.70
2022-10-10T05:53:07.478Z,21.90
2022-10-10T05:55:35.423Z,21.90
2022-10-10T05:58:04.737Z,22.00
2022-10-10T06:00:32.747Z,22.00
2022-10-10T06:03:00.685Z,21.70
2022-10-10T06:05:28.670Z,21.90
2022-10-10T06:08:09.177Z,21.70
2022-10-10T06:10:41.711Z,22.00
2022-10-10T06:13:11.664Z,22.00
2022-10-10T06:15:39.888Z,22.30
2022-10-10T06:18:08.320Z,22.60
2022-10-10T06:20:36.513Z,22.90
2022-10-10T06:23:04.731Z,22.90
2022-10-10T06:25:42.363Z,23.10
2022-10-10T06:28:12.476Z,23.20
2022-10-10T06:30:44.589Z,23.40
2022-10-10T06:33:16.141Z,23.20
2022-10-10T06:35:45.294Z,23.50
2022-10-10T06:38:13.580Z,23.70
2022-10-10T06:40:42.007Z,23.80
2022-10-10T06:43:13.398Z,23.90
2022-10-10T06:45:43.024Z,24.10
2022-10-10T06:48:11.716Z,24.10
2022-10-10T06:50:40.039Z,24.10
2022-10-10T06:53:08.284Z,24.20
2022-10-10T06:55:36.254Z,24.20
2022-10-10T06:58:04.400Z,24.10
2022-10-10T07:00:33.805Z,24.10
2022-10-10T07:03:01.873Z,24.30
2022-10-10T07:05:32.303Z,24.30
2022-10-10T07:08:03.542Z,24.30
2022-10-10T07:10:31.582Z,24.40
2022-10-10T07:12:59.597Z,24.50
2022-10-10T07:15:27.585Z,24.60
2022-10-10T07:18:00.757Z,24.60
2022-10-10T07:20:28.813Z,24.70
2022-10-10T07:22:56.862Z,24.80
2022-10-10T07:25:24.995Z,24.90
2022-10-10T07:27:54.557Z,24.90
2022-10-10T07:30:22.488Z,24.90
2022-10-10T07:32:50.662Z,25.00
2022-10-10T07:35:20.160Z,25.10
2022-10-10T07:37:49.506Z,25.10
2022-10-10T07:40:17.657Z,25.10
2022-10-10T07:42:45.732Z,25.10
2022-10-10T07:45:13.666Z,24.90
2022-10-10T07:47:41.758Z,25.10
2022-10-10T07:50:13.793Z,25.10
2022-10-10T07:52:43.122Z,24.90
2022-10-10T07:55:11.529Z,25.00
2022-10-10T07:57:39.659Z,25.10
2022-10-10T08:00:12.743Z,24.90
2022-10-10T08:02:40.899Z,25.10
2022-10-10T08:05:09.750Z,25.10
2022-10-10T08:07:37.694Z,25.40
2022-10-10T08:10:08.296Z,25.60
2022-10-10T08:12:36.789Z,25.80
2022-10-10T08:15:05.934Z,25.80
2022-10-10T08:17:34.004Z,25.80
2022-10-10T08:20:01.959Z,25.70
2022-10-10T08:22:31.428Z,25.80
2022-10-10T08:24:59.360Z,25.90
2022-10-10T08:27:28.643Z,25.60
2022-10-10T08:29:56.561Z,25.60
2022-10-10T08:32:24.485Z,25.70
2022-10-10T08:34:52.467Z,25.80
2022-10-10T08:37:20.647Z,25.70
2022-10-10T08:39:48.609Z,25.70
2022-10-10T08:42:30.786Z,25.50
2022-10-10T08:45:04.595Z,25.70
2022-10-10T08:47:39.723Z,25.50
2022-10-10T08:50:15.958Z,25.80
2022-10-10T08:52:49.381Z,26.00
2022-10-10T08:55:22.799Z,26.10
2022-10-10T08:57:53.809Z,26.30
2022-10-10T09:00:25.352Z,26.10
2022-10-10T09:02:56.659Z,26.00
2022-10-10T09:05:38.446Z,26.20
2022-10-10T09:08:26.317Z,26.40
2022-10-10T09:10:58.554Z,26.10
2022-10-10T09:13:34.499Z,26.20
2022-10-10T09:16:08.747Z,26.10
2022-10-10T09:18:59.481Z,26.30
2022-10-10T09:21:32.805Z,26.70
2022-10-10T09:24:07.399Z,26.70
2022-10-10T09:26:41.340Z,26.80
2022-10-10T09:29:31.735Z,27.10
2022-10-10T09:32:06.580Z,27.20
2022-10-10T09:34:39.520Z,27.40
2022-10-10T09:37:24.400Z,27.20
2022-10-10T09:40:08.513Z,27.40
2022-10-10T09:42:40.443Z,27.50
2022-10-10T09:45:20.011Z,27.50
2022-10-10T09:47:53.221Z,27.90
2022-10-10T09:50:21.279Z,27.90
2022-10-10T09:52:49.802Z,28.00
2022-10-10T09:55:25.453Z,27.90
2022-10-10T09:57:54.951Z,28.10
2022-10-10T10:00:29.633Z,28.30
2022-10-10T10:03:12.202Z,28.20
2022-10-10T10:05:42.097Z,28.20
2022-10-10T10:08:29.380Z,28.30
2022-10-10T10:11:01.624Z,28.40
2022-10-10T10:13:32.472Z,28.20
2022-10-10T10:16:05.031Z,28.10
2022-10-10T10:18:40.455Z,28.10
2022-10-10T10:21:19.717Z,28.20
2022-10-10T10:23:55.591Z,28.40
2022-10-10T10:26:27.306Z,28.30
2022-10-10T10:28:57.589Z,28.40
2022-10-10T10:31:50.593Z,28.40
2022-10-10T10:34:34.841Z,28.40
2022-10-10T10:37:15.025Z,28.40
2022-10-10T10:39:52.393Z,28.50
2022-10-10T10:42:34.307Z,28.30
2022-10-10T10:45:10.468Z,27.90
2022-10-10T10:47:46.033Z,28.00
2022-10-10T10:50:35.074Z,28.00
2022-10-10T10:53:08.798Z,28.10
2022-10-10T10:55:42.850Z,28.40
2022-10-10T11:01:56.938Z,28.40
2022-10-10T11:05:20.028Z,28.40
2022-10-10T11:07:36.667Z,28.30
2022-10-10T11:10:13.889Z,28.60
2022-10-10T11:12:53.975Z,28.60
2022-10-10T11:15:37.631Z,28.70
2022-10-10T11:18:18.893Z,28.60
2022-10-10T11:20:51.518Z,28.70
2022-10-10T11:23:24.980Z,28.80
2022-10-10T11:25:57.864Z,28.90
2022-10-10T11:28:31.039Z,29.00
2022-10-10T11:31:03.078Z,29.10
2022-10-10T11:33:35.979Z,29.10
2022-10-10T11:36:07.927Z,29.00
2022-10-10T11:38:44.620Z,29.00
2022-10-10T11:41:16.963Z,29.20
2022-10-10T11:43:49.458Z,29.40
2022-10-10T11:46:28.808Z,29.30
2022-10-10T11:49:08.256Z,29.30
2022-10-10T11:51:43.891Z,29.10
2022-10-10T11:54:25.310Z,29.30
2022-10-10T11:56:55.642Z,29.40
2022-10-10T11:59:28.603Z,29.40
2022-10-10T12:02:00.306Z,29.30
2022-10-10T12:04:35.828Z,29.50
2022-10-10T12:07:08.643Z,29.60
2022-10-10T12:09:42.261Z,29.60
2022-10-10T12:12:15.836Z,29.80
2022-10-10T12:14:53.768Z,29.50
2022-10-10T12:17:25.464Z,29.70
2022-10-10T12:19:54.184Z,29.60
2022-10-10T12:22:28.508Z,29.70
2022-10-10T12:25:36.096Z,29.40
2022-10-10T12:28:22.878Z,29.40
2022-10-10T12:31:20.002Z,29.40
2022-10-10T12:34:04.108Z,29.50
2022-10-10T12:36:53.773Z,29.70
2022-10-10T12:39:34.618Z,29.70
2022-10-10T12:42:04.076Z,29.70
2022-10-10T12:44:46.600Z,29.80
2022-10-10T12:48:04.096Z,29.60
2022-10-10T12:50:33.815Z,29.70
2022-10-10T12:53:03.984Z,29.60
2022-10-10T12:55:41.253Z,29.40
2022-10-10T12:58:26.248Z,29.50
2022-10-10T13:00:57.561Z,29.50
2022-10-10T13:03:30.181Z,29.30
2022-10-10T13:06:05.754Z,29.60
2022-10-10T13:08:37.190Z,29.30
2022-10-10T13:11:08.045Z,29.30
2022-10-10T13:13:37.375Z,29.40
2022-10-10T13:16:10.542Z,29.40
2022-10-10T13:18:41.005Z,29.40
2022-10-10T13:21:15.064Z,29.50
2022-10-10T13:26:38.577Z,29.90
2022-10-10T13:29:19.199Z,30.00
2022-10-10T13:31:47.526Z,30.10
2022-10-10T13:34:22.273Z,30.20
2022-10-10T13:36:56.696Z,30.20
2022-10-10T13:39:25.378Z,30.30
2022-10-10T13:41:54.795Z,30.40
2022-10-10T13:44:26.087Z,30.40
2022-10-10T13:46:54.111Z,30.40
2022-10-10T13:49:26.084Z,30.20
2022-10-10T13:52:07.175Z,30.30
2022-10-10T13:54:40.749Z,30.10
2022-10-10T13:57:16.525Z,30.00
2022-10-10T13:59:48.815Z,29.90
2022-10-10T14:02:19.142Z,30.00
2022-10-10T14:04:51.550Z,30.20
2022-10-10T14:07:23.522Z,30.20
2022-10-10T14:09:55.296Z,30.50
2022-10-10T14:12:29.711Z,30.40
2022-10-10T14:15:00.488Z,30.40
2022-10-10T14:17:30.093Z,30.40
2022-10-10T14:19:58.588Z,30.10
2022-10-10T14:22:26.726Z,30.00
2022-10-10T14:24:54.664Z,29.90
2022-10-10T14:27:27.723Z,30.10
2022-10-10T14:29:58.220Z,30.00
2022-10-10T14:32:26.878Z,30.10
2022-10-10T14:34:54.783Z,30.30
2022-10-10T14:37:26.474Z,30.40
2022-10-10T14:39:54.986Z,30.30
2022-10-10T14:42:24.342Z,30.40
2022-10-10T14:44:52.343Z,30.40
2022-10-10T14:47:24.173Z,30.50
2022-10-10T14:49:53.321Z,30.50
2022-10-10T14:52:21.307Z,30.40
2022-10-10T14:54:49.281Z,30.40
2022-10-10T14:57:17.252Z,30.30
2022-10-10T14:59:46.286Z,30.20
2022-10-10T15:02:23.014Z,30.20
2022-10-10T15:04:51.560Z,30.10
2022-10-10T15:07:19.897Z,30.10
2022-10-10T15:10:31.599Z,30.20
2022-10-10T15:12:39.390Z,30.30
2022-10-10T15:15:08.681Z,30.20
2022-10-10T15:17:37.985Z,30.20
2022-10-10T15:20:08.654Z,30.20
2022-10-10T15:22:37.205Z,30.10
2022-10-10T15:25:05.695Z,30.10
2022-10-10T15:27:33.804Z,30.10
2022-10-10T15:30:01.885Z,30.00
2022-10-10T15:32:30.035Z,30.00
2022-10-10T15:35:02.183Z,30.00
2022-10-10T15:37:30.128Z,30.00
2022-10-10T15:39:58.111Z,29.80
2022-10-10T15:42:26.132Z,29.40
2022-10-10T15:44:54.103Z,29.30
2022-10-10T15:47:22.137Z,28.90
2022-10-10T15:49:50.606Z,28.90
2022-10-10T15:52:23.009Z,28.80
2022-10-10T15:54:51.258Z,28.20
2022-10-10T15:57:19.723Z,28.40
2022-10-10T15:59:47.895Z,28.20
2022-10-10T16:02:16.820Z,28.10
2022-10-10T16:04:45.417Z,27.80
2022-10-10T16:07:30.570Z,27.80
2022-10-10T16:10:01.305Z,27.30
2022-10-10T16:12:29.786Z,27.00
2022-10-10T16:14:57.717Z,26.80
2022-10-10T16:17:25.640Z,26.50
2022-10-10T16:19:53.576Z,26.70
2022-10-10T16:22:21.758Z,26.70
2022-10-10T16:25:10.181Z,26.50
2022-10-10T16:27:39.823Z,26.40
2022-10-10T16:30:08.977Z,26.00
2022-10-10T16:32:42.022Z,26.00
2022-10-10T16:35:11.177Z,26.10
2022-10-10T16:37:40.590Z,25.90
2022-10-10T16:40:09.562Z,25.80
2022-10-10T16:42:38.889Z,25.80
2022-10-10T16:45:07.949Z,25.80
2022-10-10T16:47:36.335Z,25.90
2022-10-10T16:50:06.125Z,25.60
2022-10-10T16:52:37.770Z,25.90
2022-10-10T16:55:06.685Z,25.10
2022-10-10T16:57:35.250Z,25.30
2022-10-10T17:00:05.812Z,24.60
2022-10-10T17:02:33.794Z,24.70
2022-10-10T17:05:01.729Z,24.60
2022-10-10T17:07:30.919Z,24.70
2022-10-10T17:09:58.861Z,24.80
2022-10-10T17:12:26.855Z,24.40
2022-10-10T17:14:54.794Z,24.30
2022-10-10T17:17:24.036Z,24.60
2022-10-10T17:19:52.208Z,24.20
2022-10-10T17:22:20.220Z,24.40
2022-10-10T17:24:48.762Z,24.30
2022-10-10T17:27:16.731Z,24.70
2022-10-10T17:29:44.711Z,24.90
2022-10-10T17:32:12.623Z,24.50
2022-10-10T17:34:41.897Z,24.40
2022-10-10T17:37:09.874Z,24.00
2022-10-10T17:39:38.249Z,24.20
2022-10-10T17:42:06.362Z,24.50
2022-10-10T17:44:39.725Z,24.90
2022-10-10T17:47:11.722Z,24.30
2022-10-10T17:49:46.186Z,24.50
2022-10-10T17:52:18.854Z,24.60
2022-10-10T17:54:51.259Z,24.20
2022-10-10T17:57:19.575Z,23.90
2022-10-10T17:59:49.286Z,23.90
2022-10-10T18:02:18.562Z,23.80
2022-10-10T18:04:48.029Z,23.70
2022-10-10T18:07:18.499Z,24.10
2022-10-10T18:09:46.471Z,23.40
2022-10-10T18:12:14.405Z,24.00
2022-10-10T18:14:42.315Z,23.50
2022-10-10T18:17:11.286Z,23.70
2022-10-10T18:19:39.351Z,24.10
2022-10-10T18:22:08.802Z,23.60
2022-10-10T18:24:36.747Z,23.70
2022-10-10T18:27:04.758Z,24.00
2022-10-10T18:29:32.784Z,23.70
2022-10-10T18:32:00.730Z,23.90
2022-10-10T18:34:28.898Z,23.80
2022-10-10T18:36:56.877Z,23.70
2022-10-10T18:39:30.772Z,23.10
2022-10-10T18:42:02.423Z,22.80
2022-10-10T18:44:30.557Z,23.00
2022-10-10T18:46:58.667Z,23.20
2022-10-10T18:49:26.855Z,23.60
2022-10-10T18:51:54.791Z,23.10
2022-10-10T18:54:22.991Z,22.90
2022-10-10T18:56:52.259Z,23.30
2022-10-10T18:59:22.159Z,23.50
2022-10-10T19:01:52.245Z,23.20
2022-10-10T19:04:21.016Z,23.30
2022-10-10T19:06:54.486Z,23.30
2022-10-10T19:09:24.985Z,23.20
2022-10-10T19:11:54.363Z,23.30
2022-10-10T19:14:22.378Z,23.00
2022-10-10T19:16:50.350Z,23.40
2022-10-10T19:19:19.800Z,23.00
2022-10-10T19:21:49.303Z,23.10
2022-10-10T19:24:20.764Z,22.70
2022-10-10T19:26:53.110Z,22.90
2022-10-10T19:29:22.841Z,23.00
2022-10-10T19:31:51.250Z,22.90
2022-10-10T19:34:19.226Z,23.20
2022-10-10T19:36:47.264Z,22.90
2022-10-10T19:39:15.696Z,23.00
2022-10-10T19:41:43.713Z,23.30
2022-10-10T19:44:11.742Z,23.20
2022-10-10T19:46:41.088Z,22.60
2022-10-10T19:49:10.107Z,22.90
2022-10-10T19:51:38.201Z,23.00
2022-10-10T19:54:06.199Z,22.60
2022-10-10T19:56:34.174Z,23.50
2022-10-10T19:59:04.383Z,22.70
2022-10-10T20:01:32.746Z,23.00
2022-10-10T20:04:02.158Z,23.60
2022-10-10T20:06:30.424Z,23.70
2022-10-10T20:08:58.387Z,23.40
2022-10-10T20:11:26.731Z,23.70
2022-10-10T20:13:55.663Z,24.00
2022-10-10T20:16:25.190Z,23.30
2022-10-10T20:18:57.038Z,23.70
2022-10-10T20:21:31.365Z,23.90
2022-10-10T20:24:00.503Z,24.00
2022-10-10T20:26:30.988Z,23.90
2022-10-10T20:29:00.815Z,23.70
2022-10-10T20:31:30.239Z,23.70
2022-10-10T20:34:01.733Z,24.00
2022-10-10T20:36:33.128Z,23.20
2022-10-10T20:39:04.723Z,23.40
2022-10-10T20:41:34.329Z,23.50
2022-10-10T20:44:04.954Z,23.70
2022-10-10T20:46:36.196Z,23.50
2022-10-10T20:49:06.767Z,23.80
2022-10-10T20:51:36.007Z,24.10
2022-10-10T20:54:06.012Z,24.00
2022-10-10T20:56:35.594Z,24.10
2022-10-10T20:59:03.725Z,24.10
2022-10-10T21:01:32.271Z,24.00
2022-10-10T21:04:00.740Z,24.00
2022-10-10T21:06:32.465Z,23.90
2022-10-10T21:09:05.653Z,23.50
2022-10-10T21:11:35.741Z,23.30
2022-10-10T21:14:03.777Z,23.70
2022-10-10T21:16:35.704Z,23.40
2022-10-10T21:19:04.759Z,23.50
2022-10-10T21:21:35.043Z,23.50
2022-10-10T21:24:06.455Z,22.90
2022-10-10T21:26:34.747Z,22.90
2022-10-10T21:29:02.653Z,23.10
2022-10-10T21:31:32.553Z,23.50
2022-10-10T21:34:02.044Z,23.30
2022-10-10T21:36:30.752Z,23.20
2022-10-10T21:39:00.389Z,23.20
2022-10-10T21:41:30.065Z,23.70
2022-10-10T21:44:00.087Z,23.90
2022-10-10T21:46:34.947Z,24.10
2022-10-10T21:49:06.069Z,24.20
2022-10-10T21:51:36.500Z,24.20
2022-10-10T21:54:04.706Z,24.40
2022-10-10T21:56:34.666Z,24.40
2022-10-10T21:59:02.894Z,24.40
2022-10-10T22:01:32.864Z,24.50
2022-10-10T22:04:02.335Z,24.60
2022-10-10T22:06:30.638Z,24.60
2022-10-10T22:09:00.031Z,24.40
2022-10-10T22:11:29.427Z,24.00
2022-10-10T22:13:58.859Z,24.00
2022-10-10T22:16:26.959Z,24.20
2022-10-10T22:18:55.495Z,23.60
2022-10-10T22:21:28.012Z,23.40
2022-10-10T22:23:59.293Z,23.00
2022-10-10T22:26:28.193Z,22.80
2022-10-10T22:28:56.220Z,23.00
2022-10-10T22:31:25.674Z,22.90
2022-10-10T22:33:53.817Z,23.30
2022-10-10T22:36:21.833Z,23.70
2022-10-10T22:38:49.747Z,24.00
2022-10-10T22:41:17.708Z,24.20
2022-10-10T22:43:45.707Z,24.40
2022-10-10T22:46:13.710Z,24.60
2022-10-10T22:48:43.057Z,24.70
2022-10-10T22:51:14.734Z,24.80
2022-10-10T22:53:44.161Z,24.90
2022-10-10T22:56:15.286Z,24.60
2022-10-10T22:58:43.468Z,24.40
2022-10-10T23:01:14.494Z,24.30
2022-10-10T23:03:43.994Z,24.30
2022-10-10T23:06:12.215Z,24.40
2022-10-10T23:08:40.285Z,24.60
2022-10-10T23:11:08.451Z,24.70
2022-10-10T23:13:36.472Z,24.70
2022-10-10T23:16:05.088Z,24.80
2022-10-10T23:18:33.315Z,24.90
2022-10-10T23:21:02.576Z,25.00
2022-10-10T23:23:30.617Z,25.00
2022-10-10T23:25:58.635Z,25.10
2022-10-10T23:28:26.555Z,25.10
2022-10-10T23:30:54.565Z,25.10
2022-10-10T23:33:22.485Z,25.10
2022-10-10T23:35:58.295Z,25.10
2022-10-10T23:38:27.956Z,25.10
2022-10-10T23:40:56.632Z,25.10
2022-10-10T23:43:24.919Z,25.00
2022-10-10T23:45:52.991Z,25.00
2022-10-10T23:48:21.010Z,25.10
2022-10-10T23:50:48.910Z,25.00
2022-10-10T23:53:16.893Z,25.00
2022-10-10T23:55:50.803Z,24.60
2022-10-10T23:58:18.793Z,24.40
